sensor_id;sensor_type;location;lat;lon;timestamp;pressure;altitude;pressure_sealevel;temperature;humidity
22775;BME280;11554;51.106;3.684;2023-02-23T00:00:00;101278.41;;;7.03;100.0
22775;BME280;11554;51.106;3.684;2023-02-23T00:05:00;101280.42;;;7.02;100.0
22775;BME280;11554;51.106;3.684;2023-02-23T00:10:00;101281.89;;;7.02;100.0
22775;BME280;11554;51.106;3.684;2023-02-23T00:15:00;101280.25;;;7.01;100.0
22775;BME280;11554;51.106;3.684;2023-02-23T00:20:00;101281.78;;;6.99;100.0
22775;BME280;11554;51.106;3.684;2023-02-23T00:25:00;101283.58;;;6.97;100.0
22775;BME280;11554;51.106;3.684;2023-02-23T00:30:00;101281.23000000001;;;6.96;100.0
22775;BME280;11554;51.106;3.684;2023-02-23T00:35:00;101283.29;;;6.95;100.0
22775;BME280;11554;51.106;3.684;2023-02-23T00:40:00;101278.41;;;6.93;100.0
22775;BME280;11554;51.106;3.684;2023-02-23T00:45:00;101281.42;;;6.92;100.0
22775;BME280;11554;51.106;3.684;2023-02-23T00:50:00;101284.62;;;6.91;100.0
22775;BME280;11554;51.106;3.684;2023-02-23T00:55:00;101284.05;;;6.89;100.0
22775;BME280;11554;51.106;3.684;2023-02-23T01:00:00;101283.54000000001;;;6.88;100.0
22775;BME280;11554;51.106;3.684;2023-02-23T01:05:00;101283.11;;;6.86;100.0
22775;BME280;11554;51.106;3.684;2023-02-23T01:10:00;101283.42;;;6.84;100.0
22775;BME280;11554;51.106;3.684;2023-02-23T01:15:00;101284.78;;;6.84;100.0
22775;BME280;11554;51.106;3.684;2023-02-23T01:20:00;101286.49;;;6.83;100.0
22775;BME280;11554;51.106;3.684;2023-02-23T01:25:00;101290.17;;;6.82;100.0
22775;BME280;11554;51.106;3.684;2023-02-23T01:30:00;101292.88;;;6.79;100.0
22775;BME280;11554;51.106;3.684;2023-02-23T01:35:00;101295.86;;;6.76;100.0
22775;BME280;11554;51.106;3.684;2023-02-23T01:40:00;101299.91;;;6.73;100.0
22775;BME280;11554;51.106;3.684;2023-02-23T01:50:00;101303.02;;;6.67;100.0
22775;BME280;11554;51.106;3.684;2023-02-23T01:55:00;101307.19;;;6.65;100.0
22775;BME280;11554;51.106;3.684;2023-02-23T02:00:00;101303.71;;;6.62;100.0
22775;BME280;11554;51.106;3.684;2023-02-23T02:05:00;101300.89;;;6.62;100.0
22775;BME280;11554;51.106;3.684;2023-02-23T02:10:00;101299.89;;;6.60;100.0
22775;BME280;11554;51.106;3.684;2023-02-23T02:15:00;101297.53;;;6.62;100.0
22775;BME280;11554;51.106;3.684;2023-02-23T02:30:06;101286.91;;;6.55;100.0
22775;BME280;11554;51.106;3.684;2023-02-23T02:40:02;101279.03;;;6.48;100.0
22775;BME280;11554;51.106;3.684;2023-02-23T02:45:01;101276.12000000001;;;6.46;100.0
22775;BME280;11554;51.106;3.684;2023-02-23T02:50:02;101277.78;;;6.41;100.0
22775;BME280;11554;51.106;3.684;2023-02-23T02:55:01;101276.34000000001;;;6.33;100.0
22775;BME280;11554;51.106;3.684;2023-02-23T03:00:00;101275.92;;;6.30;100.0
22775;BME280;11554;51.106;3.684;2023-02-23T03:05:00;101277.81;;;6.28;100.0
22775;BME280;11554;51.106;3.684;2023-02-23T03:10:01;101282.42;;;6.28;100.0
22775;BME280;11554;51.106;3.684;2023-02-23T03:15:03;101290.97;;;6.29;100.0
22775;BME280;11554;51.106;3.684;2023-02-23T03:20:03;101296.45000000001;;;6.33;100.0
22775;BME280;11554;51.106;3.684;2023-02-23T03:25:02;101300.78;;;6.34;100.0
22775;BME280;11554;51.106;3.684;2023-02-23T03:30:01;101301.06;;;6.36;100.0
22775;BME280;11554;51.106;3.684;2023-02-23T03:35:00;101307.2;;;6.35;100.0
22775;BME280;11554;51.106;3.684;2023-02-23T03:40:03;101308.28;;;6.36;100.0
22775;BME280;11554;51.106;3.684;2023-02-23T03:45:03;101303.8;;;6.38;100.0
22775;BME280;11554;51.106;3.684;2023-02-23T03:50:02;101307.83;;;6.34;100.0
22775;BME280;11554;51.106;3.684;2023-02-23T03:55:01;101308.86;;;6.29;100.0
22775;BME280;11554;51.106;3.684;2023-02-23T04:00:00;101318.3;;;6.29;100.0
22775;BME280;11554;51.106;3.684;2023-02-23T04:05:01;101325.09;;;6.32;100.0
22775;BME280;11554;51.106;3.684;2023-02-23T04:10:00;101327.45;;;6.34;100.0
22775;BME280;11554;51.106;3.684;2023-02-23T04:15:00;101333.8;;;6.35;100.0
22775;BME280;11554;51.106;3.684;2023-02-23T04:20:00;101332.68000000001;;;6.34;100.0
22775;BME280;11554;51.106;3.684;2023-02-23T04:25:00;101336.36;;;6.33;100.0
22775;BME280;11554;51.106;3.684;2023-02-23T04:30:00;101333.09000000001;;;6.31;100.0
22775;BME280;11554;51.106;3.684;2023-02-23T04:35:00;101335.56999999999;;;6.29;100.0
22775;BME280;11554;51.106;3.684;2023-02-23T04:40:00;101340.23;;;6.26;100.0
22775;BME280;11554;51.106;3.684;2023-02-23T04:45:00;101339.62;;;6.29;100.0
22775;BME280;11554;51.106;3.684;2023-02-23T04:50:00;101339.0;;;6.33;100.0
22775;BME280;11554;51.106;3.684;2023-02-23T04:55:00;101331.56;;;6.31;100.0
22775;BME280;11554;51.106;3.684;2023-02-23T05:00:00;101323.75;;;6.27;100.0
22775;BME280;11554;51.106;3.684;2023-02-23T05:05:00;101310.39;;;6.20;100.0
22775;BME280;11554;51.106;3.684;2023-02-23T05:10:00;101314.53;;;6.10;100.0
22775;BME280;11554;51.106;3.684;2023-02-23T05:15:00;101328.07;;;5.83;100.0
22775;BME280;11554;51.106;3.684;2023-02-23T05:20:00;101340.25;;;5.63;100.0
22775;BME280;11554;51.106;3.684;2023-02-23T05:25:00;101346.98;;;5.57;100.0
22775;BME280;11554;51.106;3.684;2023-02-23T05:30:00;101347.36;;;5.51;100.0
22775;BME280;11554;51.106;3.684;2023-02-23T05:35:00;101356.02;;;5.44;100.0
22775;BME280;11554;51.106;3.684;2023-02-23T05:40:00;101356.67;;;5.40;100.0
22775;BME280;11554;51.106;3.684;2023-02-23T05:45:00;101356.73000000001;;;5.45;100.0
22775;BME280;11554;51.106;3.684;2023-02-23T05:50:00;101363.48000000001;;;5.51;100.0
22775;BME280;11554;51.106;3.684;2023-02-23T05:55:00;101373.75;;;5.61;100.0
22775;BME280;11554;51.106;3.684;2023-02-23T06:00:00;101378.03;;;5.68;100.0
22775;BME280;11554;51.106;3.684;2023-02-23T06:05:00;101383.7;;;5.72;100.0
22775;BME280;11554;51.106;3.684;2023-02-23T06:10:00;101383.81000000001;;;5.77;100.0
22775;BME280;11554;51.106;3.684;2023-02-23T06:15:00;101385.53;;;5.80;100.0
22775;BME280;11554;51.106;3.684;2023-02-23T06:20:00;101401.31999999999;;;5.81;100.0
22775;BME280;11554;51.106;3.684;2023-02-23T06:25:00;101406.0;;;5.83;100.0
22775;BME280;11554;51.106;3.684;2023-02-23T06:30:00;101405.1;;;5.89;100.0
22775;BME280;11554;51.106;3.684;2023-02-23T06:35:00;101412.08;;;5.94;100.0
22775;BME280;11554;51.106;3.684;2023-02-23T06:40:00;101412.2;;;5.96;100.0
22775;BME280;11554;51.106;3.684;2023-02-23T06:45:00;101424.61;;;5.97;100.0
22775;BME280;11554;51.106;3.684;2023-02-23T06:50:00;101428.85;;;5.98;100.0
22775;BME280;11554;51.106;3.684;2023-02-23T06:55:00;101427.48;;;6.02;100.0
22775;BME280;11554;51.106;3.684;2023-02-23T07:00:00;101434.64;;;6.06;100.0
22775;BME280;11554;51.106;3.684;2023-02-23T07:05:00;101442.66;;;6.08;100.0
22775;BME280;11554;51.106;3.684;2023-02-23T07:10:00;101451.29;;;6.11;100.0
22775;BME280;11554;51.106;3.684;2023-02-23T07:15:00;101461.91;;;6.13;100.0
22775;BME280;11554;51.106;3.684;2023-02-23T07:20:00;101463.97;;;6.14;100.0
22775;BME280;11554;51.106;3.684;2023-02-23T07:25:00;101470.14;;;6.18;100.0
22775;BME280;11554;51.106;3.684;2023-02-23T07:30:00;101480.48999999999;;;6.21;100.0
22775;BME280;11554;51.106;3.684;2023-02-23T07:35:00;101490.69;;;6.25;100.0
22775;BME280;11554;51.106;3.684;2023-02-23T07:40:00;101500.42;;;6.29;100.0
22775;BME280;11554;51.106;3.684;2023-02-23T07:45:00;101506.23000000001;;;6.33;100.0
22775;BME280;11554;51.106;3.684;2023-02-23T07:50:00;101511.92;;;6.38;100.0
22775;BME280;11554;51.106;3.684;2023-02-23T07:55:00;101519.0;;;6.45;100.0
22775;BME280;11554;51.106;3.684;2023-02-23T08:00:00;101525.23;;;6.50;100.0
22775;BME280;11554;51.106;3.684;2023-02-23T08:05:00;101534.12;;;6.57;100.0
22775;BME280;11554;51.106;3.684;2023-02-23T08:10:00;101533.09000000001;;;6.65;100.0
22775;BME280;11554;51.106;3.684;2023-02-23T08:15:00;101535.49;;;6.75;100.0
22775;BME280;11554;51.106;3.684;2023-02-23T08:20:00;101533.34;;;6.86;100.0
22775;BME280;11554;51.106;3.684;2023-02-23T08:25:00;101535.69;;;7.05;100.0
22775;BME280;11554;51.106;3.684;2023-02-23T08:30:00;101541.88;;;7.25;100.0
22775;BME280;11554;51.106;3.684;2023-02-23T08:35:00;101548.47;;;7.41;100.0
22775;BME280;11554;51.106;3.684;2023-02-23T08:40:00;101552.69;;;7.56;100.0
22775;BME280;11554;51.106;3.684;2023-02-23T08:45:00;101555.90999999999;;;7.79;100.0
22775;BME280;11554;51.106;3.684;2023-02-23T08:50:00;101552.49;;;7.96;100.0
22775;BME280;11554;51.106;3.684;2023-02-23T08:55:00;101552.0;;;8.08;100.0
22775;BME280;11554;51.106;3.684;2023-02-23T09:00:00;101561.93;;;8.18;100.0
22775;BME280;11554;51.106;3.684;2023-02-23T09:05:00;101571.88;;;8.25;100.0
22775;BME280;11554;51.106;3.684;2023-02-23T09:10:00;101578.31;;;8.30;100.0
22775;BME280;11554;51.106;3.684;2023-02-23T09:15:00;101585.58;;;8.27;100.0
22775;BME280;11554;51.106;3.684;2023-02-23T09:20:00;101585.33;;;8.23;100.0
22775;BME280;11554;51.106;3.684;2023-02-23T09:25:00;101591.18999999999;;;8.32;100.0
22775;BME280;11554;51.106;3.684;2023-02-23T09:30:00;101597.72;;;8.44;100.0
22775;BME280;11554;51.106;3.684;2023-02-23T09:35:00;101595.22;;;8.41;100.0
22775;BME280;11554;51.106;3.684;2023-02-23T09:40:00;101592.43000000001;;;8.45;100.0
22775;BME280;11554;51.106;3.684;2023-02-23T09:45:02;101596.55;;;8.58;100.0
22775;BME280;11554;51.106;3.684;2023-02-23T09:50:02;101599.05;;;8.69;100.0
22775;BME280;11554;51.106;3.684;2023-02-23T09:55:00;101597.51;;;8.88;100.0
22775;BME280;11554;51.106;3.684;2023-02-23T10:00:00;101604.24;;;8.71;100.0
22775;BME280;11554;51.106;3.684;2023-02-23T10:05:00;101611.37999999999;;;8.53;100.0
22775;BME280;11554;51.106;3.684;2023-02-23T10:10:02;101610.5;;;8.53;100.0
22775;BME280;11554;51.106;3.684;2023-02-23T10:15:03;101609.55;;;8.86;100.0
22775;BME280;11554;51.106;3.684;2023-02-23T10:20:02;101613.33;;;8.99;100.0
22775;BME280;11554;51.106;3.684;2023-02-23T10:25:01;101618.24;;;9.16;100.0
22775;BME280;11554;51.106;3.684;2023-02-23T10:30:00;101609.64;;;9.49;100.0
22775;BME280;11554;51.106;3.684;2023-02-23T10:35:00;101611.01999999999;;;9.71;100.0
22775;BME280;11554;51.106;3.684;2023-02-23T10:40:00;101624.14;;;9.89;100.0
22775;BME280;11554;51.106;3.684;2023-02-23T10:45:00;101630.17;;;9.81;100.0
22775;BME280;11554;51.106;3.684;2023-02-23T10:50:00;101631.78;;;9.67;100.0
22775;BME280;11554;51.106;3.684;2023-02-23T10:55:03;101648.06999999999;;;9.56;100.0
22775;BME280;11554;51.106;3.684;2023-02-23T11:00:09;101652.21;;;9.42;100.0
22775;BME280;11554;51.106;3.684;2023-02-23T11:05:00;101650.7;;;9.47;100.0
22775;BME280;11554;51.106;3.684;2023-02-23T11:15:00;101641.95999999999;;;9.29;100.0
22775;BME280;11554;51.106;3.684;2023-02-23T11:20:01;101638.75;;;9.26;100.0
22775;BME280;11554;51.106;3.684;2023-02-23T11:25:00;101633.91;;;9.24;100.0
22775;BME280;11554;51.106;3.684;2023-02-23T11:30:02;101632.67;;;9.09;100.0
22775;BME280;11554;51.106;3.684;2023-02-23T11:40:01;101645.56;;;9.58;100.0
22775;BME280;11554;51.106;3.684;2023-02-23T11:45:02;101652.61;;;9.86;100.0
22775;BME280;11554;51.106;3.684;2023-02-23T11:50:00;101645.94;;;9.96;100.0
22775;BME280;11554;51.106;3.684;2023-02-23T11:55:01;101636.17;;;10.03;100.0
22775;BME280;11554;51.106;3.684;2023-02-23T12:00:01;101626.08;;;9.84;100.0
22775;BME280;11554;51.106;3.684;2023-02-23T12:05:01;101627.68;;;9.93;100.0
22775;BME280;11554;51.106;3.684;2023-02-23T12:10:02;101622.36;;;10.00;100.0
22775;BME280;11554;51.106;3.684;2023-02-23T12:15:01;101613.23;;;10.18;100.0
22775;BME280;11554;51.106;3.684;2023-02-23T12:20:01;101612.36;;;10.39;100.0
22775;BME280;11554;51.106;3.684;2023-02-23T12:25:00;101608.22;;;10.73;100.0
22775;BME280;11554;51.106;3.684;2023-02-23T12:30:03;101609.75;;;10.84;100.0
22775;BME280;11554;51.106;3.684;2023-02-23T12:35:00;101612.95;;;11.00;100.0
22775;BME280;11554;51.106;3.684;2023-02-23T12:40:02;101624.61;;;10.65;100.0
22775;BME280;11554;51.106;3.684;2023-02-23T12:45:01;101624.01999999999;;;10.36;100.0
22775;BME280;11554;51.106;3.684;2023-02-23T12:50:00;101627.87;;;10.55;100.0
22775;BME280;11554;51.106;3.684;2023-02-23T12:55:00;101631.8;;;11.16;100.0
22775;BME280;11554;51.106;3.684;2023-02-23T13:00:03;101622.24;;;11.51;100.0
22775;BME280;11554;51.106;3.684;2023-02-23T13:10:02;101623.78;;;12.60;100.0
22775;BME280;11554;51.106;3.684;2023-02-23T13:15:01;101620.20999999999;;;12.08;100.0
22775;BME280;11554;51.106;3.684;2023-02-23T13:20:00;101622.29999999999;;;11.83;100.0
22775;BME280;11554;51.106;3.684;2023-02-23T13:25:01;101623.24;;;11.84;100.0
22775;BME280;11554;51.106;3.684;2023-02-23T13:30:00;101625.37;;;12.21;100.0
22775;BME280;11554;51.106;3.684;2023-02-23T13:35:00;101627.37;;;12.11;100.0
22775;BME280;11554;51.106;3.684;2023-02-23T13:40:01;101627.01;;;12.14;100.0
22775;BME280;11554;51.106;3.684;2023-02-23T13:45:03;101621.73;;;11.91;100.0
22775;BME280;11554;51.106;3.684;2023-02-23T13:50:01;101622.97;;;11.83;100.0
22775;BME280;11554;51.106;3.684;2023-02-23T13:55:00;101624.73;;;12.07;100.0
22775;BME280;11554;51.106;3.684;2023-02-23T14:00:00;101628.81;;;12.10;100.0
22775;BME280;11554;51.106;3.684;2023-02-23T14:05:00;101631.2;;;12.11;100.0
22775;BME280;11554;51.106;3.684;2023-02-23T14:10:03;101632.51000000001;;;12.16;100.0
22775;BME280;11554;51.106;3.684;2023-02-23T14:20:03;101645.42;;;11.94;100.0
22775;BME280;11554;51.106;3.684;2023-02-23T14:30:05;101651.78;;;11.76;100.0
22775;BME280;11554;51.106;3.684;2023-02-23T14:35:00;101649.06999999999;;;11.48;100.0
22775;BME280;11554;51.106;3.684;2023-02-23T14:40:02;101647.06;;;11.36;100.0
22775;BME280;11554;51.106;3.684;2023-02-23T14:45:02;101637.68;;;11.14;100.0
22775;BME280;11554;51.106;3.684;2023-02-23T14:50:00;101642.75;;;11.36;100.0
22775;BME280;11554;51.106;3.684;2023-02-23T14:55:05;101641.21;;;11.15;100.0
22775;BME280;11554;51.106;3.684;2023-02-23T15:00:00;101638.51;;;11.69;100.0
22775;BME280;11554;51.106;3.684;2023-02-23T15:10:00;101649.57;;;11.22;100.0
22775;BME280;11554;51.106;3.684;2023-02-23T15:15:00;101639.87;;;11.35;100.0
22775;BME280;11554;51.106;3.684;2023-02-23T15:20:01;101638.84000000001;;;11.41;100.0
22775;BME280;11554;51.106;3.684;2023-02-23T15:25:00;101644.98;;;11.02;100.0
22775;BME280;11554;51.106;3.684;2023-02-23T15:30:07;101648.38;;;10.77;100.0
22775;BME280;11554;51.106;3.684;2023-02-23T15:35:00;101648.92;;;10.49;100.0
22775;BME280;11554;51.106;3.684;2023-02-23T15:40:00;101648.06999999999;;;10.31;100.0
22775;BME280;11554;51.106;3.684;2023-02-23T15:45:00;101660.27;;;10.26;100.0
22775;BME280;11554;51.106;3.684;2023-02-23T15:50:03;101654.04999999999;;;10.33;100.0
22775;BME280;11554;51.106;3.684;2023-02-23T15:55:01;101648.79;;;10.19;100.0
22775;BME280;11554;51.106;3.684;2023-02-23T16:00:00;101648.72;;;9.92;100.0
22775;BME280;11554;51.106;3.684;2023-02-23T16:05:05;101654.49;;;9.81;100.0
22775;BME280;11554;51.106;3.684;2023-02-23T16:10:02;101655.65000000001;;;9.67;100.0
22775;BME280;11554;51.106;3.684;2023-02-23T16:15:00;101662.91;;;9.59;100.0
22775;BME280;11554;51.106;3.684;2023-02-23T16:20:02;101658.51;;;9.53;100.0
22775;BME280;11554;51.106;3.684;2023-02-23T16:25:00;101664.95;;;9.45;100.0
22775;BME280;11554;51.106;3.684;2023-02-23T16:30:04;101665.04;;;9.39;100.0
22775;BME280;11554;51.106;3.684;2023-02-23T16:35:01;101662.22;;;9.26;100.0
22775;BME280;11554;51.106;3.684;2023-02-23T16:40:00;101667.7;;;9.15;100.0
22775;BME280;11554;51.106;3.684;2023-02-23T16:45:00;101667.55;;;9.04;100.0
22775;BME280;11554;51.106;3.684;2023-02-23T16:50:00;101670.65;;;8.92;100.0
22775;BME280;11554;51.106;3.684;2023-02-23T16:55:00;101668.11;;;8.81;100.0
22775;BME280;11554;51.106;3.684;2023-02-23T17:00:00;101667.74;;;8.66;100.0
22775;BME280;11554;51.106;3.684;2023-02-23T17:05:00;101672.26000000001;;;8.52;100.0
22775;BME280;11554;51.106;3.684;2023-02-23T17:10:00;101682.44;;;8.39;100.0
22775;BME280;11554;51.106;3.684;2023-02-23T17:15:01;101687.66;;;8.32;100.0
22775;BME280;11554;51.106;3.684;2023-02-23T17:20:00;101694.48;;;8.25;100.0
22775;BME280;11554;51.106;3.684;2023-02-23T17:25:00;101698.27;;;8.13;100.0
22775;BME280;11554;51.106;3.684;2023-02-23T17:30:00;101704.58;;;8.07;100.0
22775;BME280;11554;51.106;3.684;2023-02-23T17:35:00;101716.06;;;7.99;100.0
22775;BME280;11554;51.106;3.684;2023-02-23T17:40:00;101712.40000000001;;;7.93;100.0
22775;BME280;11554;51.106;3.684;2023-02-23T17:45:00;101714.39;;;7.84;100.0
22775;BME280;11554;51.106;3.684;2023-02-23T17:50:00;101709.7;;;7.77;100.0
22775;BME280;11554;51.106;3.684;2023-02-23T17:55:00;101717.16;;;7.71;100.0
22775;BME280;11554;51.106;3.684;2023-02-23T18:00:00;101722.6;;;7.62;100.0
22775;BME280;11554;51.106;3.684;2023-02-23T18:05:00;101728.62;;;7.58;100.0
22775;BME280;11554;51.106;3.684;2023-02-23T18:10:00;101734.18000000001;;;7.52;100.0
22775;BME280;11554;51.106;3.684;2023-02-23T18:15:00;101741.04999999999;;;7.46;100.0
22775;BME280;11554;51.106;3.684;2023-02-23T18:20:00;101743.8;;;7.45;100.0
22775;BME280;11554;51.106;3.684;2023-02-23T18:25:00;101738.34000000001;;;7.33;100.0
22775;BME280;11554;51.106;3.684;2023-02-23T18:30:00;101741.64;;;7.21;100.0
22775;BME280;11554;51.106;3.684;2023-02-23T18:35:00;101743.56;;;7.06;100.0
22775;BME280;11554;51.106;3.684;2023-02-23T18:40:00;101746.2;;;6.97;100.0
22775;BME280;11554;51.106;3.684;2023-02-23T18:45:00;101746.63;;;6.94;100.0
22775;BME280;11554;51.106;3.684;2023-02-23T18:50:00;101749.8;;;6.95;100.0
22775;BME280;11554;51.106;3.684;2023-02-23T18:55:00;101750.85;;;6.87;100.0
22775;BME280;11554;51.106;3.684;2023-02-23T19:00:00;101743.91;;;6.86;100.0
22775;BME280;11554;51.106;3.684;2023-02-23T19:05:00;101736.35;;;6.83;100.0
22775;BME280;11554;51.106;3.684;2023-02-23T19:10:00;101739.54;;;6.75;100.0
22775;BME280;11554;51.106;3.684;2023-02-23T19:15:00;101737.51999999999;;;6.70;100.0
22775;BME280;11554;51.106;3.684;2023-02-23T19:20:00;101741.27;;;6.66;100.0
22775;BME280;11554;51.106;3.684;2023-02-23T19:25:00;101748.05;;;6.65;100.0
22775;BME280;11554;51.106;3.684;2023-02-23T19:30:00;101748.78;;;6.58;100.0
22775;BME280;11554;51.106;3.684;2023-02-23T19:35:00;101748.72;;;6.51;100.0
22775;BME280;11554;51.106;3.684;2023-02-23T19:40:00;101756.94;;;6.34;100.0
22775;BME280;11554;51.106;3.684;2023-02-23T19:45:00;101754.65000000001;;;6.24;100.0
22775;BME280;11554;51.106;3.684;2023-02-23T19:50:00;101752.78;;;6.18;100.0
22775;BME280;11554;51.106;3.684;2023-02-23T19:55:00;101758.8;;;6.10;100.0
22775;BME280;11554;51.106;3.684;2023-02-23T20:00:00;101766.83;;;6.09;100.0
22775;BME280;11554;51.106;3.684;2023-02-23T20:05:00;101759.33;;;6.00;100.0
22775;BME280;11554;51.106;3.684;2023-02-23T20:10:00;101769.92;;;6.00;100.0
22775;BME280;11554;51.106;3.684;2023-02-23T20:15:00;101771.7;;;5.94;100.0
22775;BME280;11554;51.106;3.684;2023-02-23T20:20:00;101782.06;;;5.93;100.0
22775;BME280;11554;51.106;3.684;2023-02-23T20:25:00;101778.91;;;5.87;100.0
22775;BME280;11554;51.106;3.684;2023-02-23T20:30:00;101781.70999999999;;;5.86;100.0
22775;BME280;11554;51.106;3.684;2023-02-23T20:35:00;101778.17;;;5.84;100.0
22775;BME280;11554;51.106;3.684;2023-02-23T20:40:00;101770.22;;;5.82;100.0
22775;BME280;11554;51.106;3.684;2023-02-23T20:45:00;101770.87;;;5.80;100.0
22775;BME280;11554;51.106;3.684;2023-02-23T20:50:00;101769.09000000001;;;5.75;100.0
22775;BME280;11554;51.106;3.684;2023-02-23T20:55:00;101768.91;;;5.70;100.0
22775;BME280;11554;51.106;3.684;2023-02-23T21:00:00;101767.19;;;5.68;100.0
22775;BME280;11554;51.106;3.684;2023-02-23T21:05:00;101764.34000000001;;;5.64;100.0
22775;BME280;11554;51.106;3.684;2023-02-23T21:10:00;101766.22;;;5.60;100.0
22775;BME280;11554;51.106;3.684;2023-02-23T21:15:00;101760.35;;;5.58;100.0
22775;BME280;11554;51.106;3.684;2023-02-23T21:20:00;101760.35;;;5.58;100.0
22775;BME280;11554;51.106;3.684;2023-02-23T21:25:00;101761.35;;;5.54;100.0
22775;BME280;11554;51.106;3.684;2023-02-23T21:30:00;101759.22;;;5.50;100.0
22775;BME280;11554;51.106;3.684;2023-02-23T21:35:00;101758.23000000001;;;5.47;100.0
22775;BME280;11554;51.106;3.684;2023-02-23T21:40:00;101764.25;;;5.48;100.0
22775;BME280;11554;51.106;3.684;2023-02-23T21:45:00;101762.99;;;5.47;100.0
22775;BME280;11554;51.106;3.684;2023-02-23T21:50:00;101761.84;;;5.46;100.0
22775;BME280;11554;51.106;3.684;2023-02-23T21:55:00;101754.08;;;5.44;100.0
22775;BME280;11554;51.106;3.684;2023-02-23T22:00:00;101751.09;;;5.41;100.0
22775;BME280;11554;51.106;3.684;2023-02-23T22:05:00;101746.74;;;5.37;100.0
22775;BME280;11554;51.106;3.684;2023-02-23T22:10:00;101750.16;;;5.33;100.0
22775;BME280;11554;51.106;3.684;2023-02-23T22:15:01;101747.92;;;5.29;100.0
22775;BME280;11554;51.106;3.684;2023-02-23T22:20:00;101741.72;;;5.24;100.0
22775;BME280;11554;51.106;3.684;2023-02-23T22:25:00;101746.26;;;5.20;100.0
22775;BME280;11554;51.106;3.684;2023-02-23T22:30:00;101744.08;;;5.10;100.0
22775;BME280;11554;51.106;3.684;2023-02-23T22:35:00;101746.78;;;5.01;100.0
22775;BME280;11554;51.106;3.684;2023-02-23T22:40:00;101746.91;;;4.96;100.0
22775;BME280;11554;51.106;3.684;2023-02-23T22:45:00;101741.76;;;4.89;100.0
22775;BME280;11554;51.106;3.684;2023-02-23T22:50:00;101736.64;;;4.85;100.0
22775;BME280;11554;51.106;3.684;2023-02-23T22:55:00;101734.09;;;4.82;100.0
22775;BME280;11554;51.106;3.684;2023-02-23T23:00:00;101726.23;;;4.76;100.0
22775;BME280;11554;51.106;3.684;2023-02-23T23:05:00;101734.79999999999;;;4.71;100.0
22775;BME280;11554;51.106;3.684;2023-02-23T23:10:00;101728.45;;;4.66;100.0
22775;BME280;11554;51.106;3.684;2023-02-23T23:15:00;101720.79;;;4.53;100.0
22775;BME280;11554;51.106;3.684;2023-02-23T23:20:00;101724.47;;;4.37;100.0
22775;BME280;11554;51.106;3.684;2023-02-23T23:25:00;101711.75;;;4.17;100.0
22775;BME280;11554;51.106;3.684;2023-02-23T23:30:00;101707.25;;;3.90;100.0
22775;BME280;11554;51.106;3.684;2023-02-23T23:35:00;101704.08;;;3.68;100.0
22775;BME280;11554;51.106;3.684;2023-02-23T23:40:00;101700.22;;;3.46;100.0
22775;BME280;11554;51.106;3.684;2023-02-23T23:45:00;101699.5;;;3.19;100.0
22775;BME280;11554;51.106;3.684;2023-02-23T23:50:00;101696.62;;;3.04;100.0
22775;BME280;11554;51.106;3.684;2023-02-23T23:55:00;101693.69;;;2.95;100.0
